SBLS weather

Lagoa Santa Airport
Lagoa Santa, Minas Gerais, Brazil

Public forecast

Using degrees Celsius for public forecast. Weather courtesy of forecast.io.

METAR (pilot weather report)

Retrieved 2019/07/20 17:00 UTC (22 minutes ago):

SBLS 201700Z 10009KT 020V140 9999 BKN040 20/07 Q1025

TAF (pilot weather forecast)

Closest forecast is Tancredo Neves International Airport, 4.8 nm (8.9 km) WNW. Retrieved 2019/07/20 12:00 UTC (5 hours ago):

TAF SBCF 201000Z 2012/2112 10008KT CAVOK TX21/2017Z TN11/2108Z BECMG 2014/2016 04010KT 9999 SCT045 BECMG 2100/2102 10005KT RMK PFY